Time;durP1;ratioP1;P1;durP2;ratioP2;P2;SDS_P1;SDS_P2;PMS_P1;PMS_P2;Temp;Humidity;BMP_temperature;BMP_pressure;BME280_temperature;BME280_humidity;BME280_pressure;Samples;Min_cycle;Max_cycle;Signal;HPM_P1;HPM_P2
2022/03/31 00:00:22;;;;;;;15.20;5.65;;;-4.50;99.90;-5.30;97865.00;;;;4863736;29;92416;-69
2022/03/31 00:02:48;;;;;;;9.70;5.20;;;-4.50;99.90;-5.20;97856.00;;;;4854673;29;92415;-69
2022/03/31 00:05:14;;;;;;;9.20;5.55;;;-4.40;99.90;-5.20;97855.00;;;;4859578;29;93661;-69
2022/03/31 00:07:57;;;;;;;14.98;6.20;;;-4.30;99.90;-5.20;97844.00;;;;4850825;29;93177;-69
2022/03/31 00:10:32;;;;;;;11.95;5.88;;;-4.40;99.90;-5.30;97852.00;;;;4851707;29;92755;-69
2022/03/31 00:13:00;;;;;;;10.65;5.45;;;-4.40;99.90;-5.30;97857.00;;;;4853432;29;92175;-66
2022/03/31 00:15:29;;;;;;;12.48;5.70;;;-4.40;99.90;-5.30;97853.00;;;;4859521;29;93593;-64
2022/03/31 00:17:59;;;;;;;12.70;5.65;;;-4.50;99.90;-5.30;97853.00;;;;4854931;29;92350;-64
2022/03/31 00:20:26;;;;;;;9.95;5.95;;;-4.50;99.90;-5.40;97857.00;;;;4853604;29;92003;-65
2022/03/31 00:22:53;;;;;;;11.07;5.60;;;-4.50;99.90;-5.40;97863.00;;;;4846241;29;91773;-65
2022/03/31 00:25:19;;;;;;;12.88;5.70;;;-4.50;99.90;-5.40;97869.00;;;;4820725;29;95764;-64
2022/03/31 00:27:46;;;;;;;10.05;5.13;;;-4.50;99.90;-5.40;97869.00;;;;4856835;29;92495;-64
2022/03/31 00:30:14;;;;;;;10.05;5.97;;;-4.60;99.90;-5.40;97863.00;;;;4815336;29;93006;-64
2022/03/31 00:32:41;;;;;;;12.25;5.30;;;-4.50;99.90;-5.40;97869.00;;;;4862743;29;92244;-65
2022/03/31 00:35:10;;;;;;;9.20;5.25;;;-4.60;99.90;-5.50;97874.00;;;;4863005;29;92961;-64
2022/03/31 00:37:37;;;;;;;10.90;6.07;;;-4.60;99.90;-5.50;97878.00;;;;4851173;29;92369;-64
2022/03/31 00:40:05;;;;;;;8.75;4.93;;;-4.70;99.90;-5.50;97884.00;;;;4847213;29;92164;-64
2022/03/31 00:42:31;;;;;;;12.60;5.95;;;-4.60;99.90;-5.40;97873.00;;;;4856173;29;92340;-65
2022/03/31 00:44:57;;;;;;;8.80;5.57;;;-4.60;99.90;-5.40;97866.00;;;;4834801;29;92664;-64
2022/03/31 00:47:24;;;;;;;11.38;6.00;;;-4.50;99.90;-5.40;97874.00;;;;4857357;29;93475;-65
2022/03/31 00:49:50;;;;;;;10.38;6.00;;;-4.50;99.90;-5.40;97867.00;;;;4850819;29;92710;-65
2022/03/31 00:52:16;;;;;;;8.52;4.97;;;-4.50;99.90;-5.40;97882.00;;;;4850448;29;92349;-64
2022/03/31 00:54:43;;;;;;;9.25;5.05;;;-4.50;99.90;-5.40;97865.00;;;;4828860;29;96860;-65
2022/03/31 00:57:11;;;;;;;11.88;5.68;;;-4.50;99.90;-5.30;97873.00;;;;4833051;29;94552;-64
2022/03/31 00:59:38;;;;;;;8.90;5.10;;;-4.50;99.90;-5.30;97883.00;;;;4856000;29;92123;-65
2022/03/31 01:02:05;;;;;;;10.00;4.85;;;-4.40;99.90;-5.20;97887.00;;;;4852398;29;92401;-65
2022/03/31 01:04:34;;;;;;;8.05;4.68;;;-4.40;99.90;-5.20;97872.00;;;;4847042;29;93762;-64
2022/03/31 01:07:01;;;;;;;8.60;4.53;;;-4.30;99.90;-5.20;97880.00;;;;4827998;29;93450;-64
2022/03/31 01:09:27;;;;;;;8.80;4.97;;;-4.30;99.90;-5.30;97881.00;;;;4851184;29;92508;-64
2022/03/31 01:11:54;;;;;;;7.30;4.80;;;-4.40;99.90;-5.30;97877.00;;;;4843535;29;92498;-64
2022/03/31 01:14:20;;;;;;;9.43;5.15;;;-4.50;99.90;-5.30;97882.00;;;;4851178;29;92609;-65
2022/03/31 01:16:47;;;;;;;11.55;5.95;;;-4.50;99.90;-5.30;97885.00;;;;4852185;29;92204;-64
2022/03/31 01:19:14;;;;;;;6.68;4.50;;;-4.50;99.90;-5.30;97879.00;;;;4852330;29;93445;-64
2022/03/31 01:21:46;;;;;;;9.52;5.00;;;-4.40;99.90;-5.20;97884.00;;;;4856862;29;92370;-64
2022/03/31 01:24:14;;;;;;;8.90;5.18;;;-4.40;99.90;-5.30;97873.00;;;;4857397;29;94141;-64
2022/03/31 01:26:42;;;;;;;14.95;5.80;;;-4.40;99.90;-5.40;97886.00;;;;4850284;29;92627;-64
2022/03/31 01:29:09;;;;;;;11.35;5.50;;;-4.50;99.90;-5.50;97889.00;;;;4836392;29;92066;-64
2022/03/31 01:31:38;;;;;;;8.52;4.50;;;-4.60;99.90;-5.50;97877.00;;;;4836937;29;92059;-64
2022/03/31 01:34:07;;;;;;;9.50;4.88;;;-4.70;99.90;-5.50;97885.00;;;;4845852;29;92448;-64
2022/03/31 01:36:36;;;;;;;7.85;5.22;;;-4.70;99.90;-5.40;97889.00;;;;4843025;29;93623;-65
2022/03/31 01:39:05;;;;;;;9.10;5.57;;;-4.60;99.90;-5.40;97891.00;;;;4837979;29;92128;-65
2022/03/31 01:41:31;;;;;;;10.35;5.38;;;-4.60;99.90;-5.40;97891.00;;;;4852877;29;92890;-65
2022/03/31 01:43:58;;;;;;;12.25;6.03;;;-4.50;99.90;-5.40;97891.00;;;;4851922;29;93535;-65
2022/03/31 01:46:24;;;;;;;10.32;4.68;;;-4.60;99.90;-5.50;97888.00;;;;4837905;29;93981;-65
2022/03/31 01:48:52;;;;;;;7.05;4.50;;;-4.60;99.90;-5.50;97888.00;;;;4832037;29;92495;-64
2022/03/31 01:51:19;;;;;;;8.52;4.85;;;-4.70;99.90;-5.60;97894.00;;;;4878300;28;92148;-64
2022/03/31 01:53:45;;;;;;;8.13;4.82;;;-4.70;99.90;-5.60;97898.00;;;;4861526;28;93257;-64
2022/03/31 01:56:11;;;;;;;13.63;6.43;;;-4.70;99.90;-5.70;97887.00;;;;4864521;28;93658;-65
2022/03/31 01:58:37;;;;;;;11.07;4.80;;;-4.80;99.90;-5.60;97896.00;;;;4877712;28;91968;-64
2022/03/31 02:01:04;;;;;;;9.48;4.63;;;-4.70;99.90;-5.50;97904.00;;;;4849398;28;91627;-65
2022/03/31 02:03:31;;;;;;;7.32;4.70;;;-4.70;99.90;-5.50;97909.00;;;;4868524;28;92569;-64
2022/03/31 02:05:58;;;;;;;7.20;5.10;;;-4.70;99.90;-5.50;97902.00;;;;4863548;28;92408;-64
2022/03/31 02:08:24;;;;;;;8.43;5.57;;;-4.70;99.90;-5.50;97903.00;;;;4877391;28;93360;-64
2022/03/31 02:10:50;;;;;;;11.20;5.85;;;-4.70;99.90;-5.60;97908.00;;;;4880243;28;92603;-65
2022/03/31 02:13:16;;;;;;;9.63;5.85;;;-4.70;99.90;-5.60;97905.00;;;;4873182;28;93897;-64
2022/03/31 02:15:43;;;;;;;9.18;5.72;;;-4.70;99.90;-5.60;97905.00;;;;4874928;28;93196;-64
2022/03/31 02:18:10;;;;;;;11.57;5.78;;;-4.70;99.90;-5.60;97909.00;;;;4878309;28;92589;-64
2022/03/31 02:20:37;;;;;;;12.25;6.00;;;-4.70;99.90;-5.50;97909.00;;;;4879280;28;92251;-64
2022/03/31 02:23:04;;;;;;;10.77;5.50;;;-4.60;99.90;-5.50;97899.00;;;;4866957;28;92805;-65
2022/03/31 02:25:32;;;;;;;10.25;5.43;;;-4.60;99.90;-5.50;97905.00;;;;4856335;29;92623;-65
2022/03/31 02:28:02;;;;;;;10.98;6.50;;;-4.60;99.90;-5.50;97906.00;;;;4875036;28;92024;-65
2022/03/31 02:30:31;;;;;;;10.75;5.80;;;-4.60;99.90;-5.50;97922.00;;;;4866326;28;92002;-65
2022/03/31 02:32:59;;;;;;;9.75;6.00;;;-4.70;99.90;-5.50;97903.00;;;;4883024;28;93848;-64
2022/03/31 02:35:26;;;;;;;9.32;5.90;;;-4.70;99.90;-5.60;97910.00;;;;4884345;28;93346;-64
2022/03/31 02:37:53;;;;;;;11.75;6.30;;;-4.70;99.90;-5.70;97911.00;;;;4882999;28;92308;-64
2022/03/31 02:40:19;;;;;;;14.65;7.60;;;-4.80;99.90;-5.70;97906.00;;;;4868107;28;92793;-65
2022/03/31 02:42:45;;;;;;;11.80;6.55;;;-4.80;99.90;-5.70;97911.00;;;;4860711;28;93159;-64
2022/03/31 02:45:12;;;;;;;13.43;6.18;;;-4.80;99.90;-5.70;97907.00;;;;4855201;28;93446;-64
2022/03/31 02:47:38;;;;;;;11.27;7.05;;;-4.80;99.90;-5.70;97910.00;;;;4879183;28;92322;-64
2022/03/31 02:50:06;;;;;;;10.13;5.95;;;-4.80;99.90;-5.70;97912.00;;;;4871902;28;91434;-64
2022/03/31 02:55:30;;;;;;;12.57;6.40;;;-4.80;99.90;-5.70;97913.00;;;;4866209;28;92699;-65
2022/03/31 02:58:02;;;;;;;13.57;6.95;;;-4.90;99.90;-5.60;97909.00;;;;4879303;28;93063;-64
2022/03/31 03:00:32;;;;;;;13.05;6.70;;;-4.80;99.90;-5.70;97920.00;;;;4834777;29;92406;-65
2022/03/31 03:03:00;;;;;;;12.70;6.60;;;-4.80;99.90;-5.70;97914.00;;;;4872455;28;93779;-64
2022/03/31 03:05:26;;;;;;;13.88;6.95;;;-4.80;99.90;-5.70;97914.00;;;;4868034;28;92394;-64
2022/03/31 03:07:52;;;;;;;10.40;6.18;;;-4.90;99.90;-5.70;97919.00;;;;4866591;28;92379;-65
2022/03/31 03:10:18;;;;;;;13.00;6.82;;;-4.90;99.90;-5.80;97930.00;;;;4859051;28;92127;-65
2022/03/31 03:12:44;;;;;;;13.55;6.43;;;-4.90;99.90;-5.70;97929.00;;;;4877940;28;94264;-65
2022/03/31 03:15:11;;;;;;;12.10;6.35;;;-4.90;99.90;-5.70;97936.00;;;;4873847;28;93381;-65
2022/03/31 03:17:43;;;;;;;11.32;6.95;;;-4.90;99.90;-5.60;97935.00;;;;4860366;29;92349;-65
2022/03/31 03:20:14;;;;;;;11.73;6.13;;;-4.80;99.90;-5.40;97924.00;;;;4865988;28;92272;-65
2022/03/31 03:22:49;;;;;;;13.52;7.95;;;-4.70;99.90;-5.30;97936.00;;;;4871211;28;93653;-65
2022/03/31 03:25:18;;;;;;;15.88;8.00;;;-4.60;99.90;-5.20;97935.00;;;;4879860;28;92499;-65
2022/03/31 03:27:48;;;;;;;15.30;6.57;;;-4.50;99.90;-4.80;97930.00;;;;4872923;28;92034;-64
2022/03/31 03:30:18;;;;;;;14.45;6.32;;;-4.30;99.90;-4.20;97921.00;;;;4878347;28;92500;-64
2022/03/31 03:32:45;;;;;;;11.85;6.50;;;-3.80;99.90;-3.60;97923.00;;;;4874926;28;92983;-64
2022/03/31 03:35:13;;;;;;;14.45;6.63;;;-3.40;99.90;-3.30;97923.00;;;;4866377;28;93790;-65
2022/03/31 03:37:42;;;;;;;9.85;5.50;;;-3.10;99.90;-3.00;97917.00;;;;4855958;29;92417;-65
2022/03/31 03:40:11;;;;;;;8.85;5.60;;;-2.80;99.90;-2.70;97921.00;;;;4881296;28;91866;-65
2022/03/31 03:42:38;;;;;;;9.32;5.22;;;-2.60;99.90;-2.70;97925.00;;;;4853208;28;93643;-65
2022/03/31 03:45:06;;;;;;;13.00;5.30;;;-2.50;99.90;-2.70;97933.00;;;;4875268;28;92090;-65
2022/03/31 03:47:33;;;;;;;12.07;6.97;;;-2.40;99.90;-2.70;97934.00;;;;4869659;28;93021;-65
2022/03/31 03:49:59;;;;;;;11.25;5.47;;;-2.40;99.90;-2.70;97940.00;;;;4875039;28;92118;-64
2022/03/31 03:52:25;;;;;;;10.77;6.28;;;-2.40;99.90;-2.70;97951.00;;;;4879103;28;92682;-65
2022/03/31 03:54:51;;;;;;;9.20;5.38;;;-2.40;99.90;-2.70;97946.00;;;;4881534;28;92420;-65
2022/03/31 03:57:18;;;;;;;12.65;5.93;;;-2.40;99.90;-2.50;97948.00;;;;4883103;28;92143;-65
2022/03/31 03:59:45;;;;;;;9.35;5.78;;;-2.30;99.90;-2.50;97944.00;;;;4871512;28;92488;-65
2022/03/31 04:02:11;;;;;;;9.43;5.45;;;-2.30;99.90;-2.60;97946.00;;;;4873397;28;92048;-65
2022/03/31 04:04:37;;;;;;;12.35;5.80;;;-2.30;99.90;-2.60;97951.00;;;;4879212;28;92945;-64
2022/03/31 04:07:03;;;;;;;12.70;5.80;;;-2.30;99.90;-2.70;97941.00;;;;4878054;28;92436;-65
2022/03/31 04:09:29;;;;;;;14.20;5.78;;;-2.30;99.90;-2.70;97941.00;;;;4869052;28;92028;-65
2022/03/31 04:11:56;;;;;;;12.77;5.80;;;-2.30;99.90;-2.70;97947.00;;;;4878240;28;94902;-65
2022/03/31 04:14:22;;;;;;;11.60;5.97;;;-2.40;99.90;-2.60;97952.00;;;;4875211;28;93200;-65
2022/03/31 04:16:49;;;;;;;11.63;5.63;;;-2.30;99.90;-2.50;97946.00;;;;4872456;28;92274;-64
2022/03/31 04:19:15;;;;;;;12.95;6.38;;;-2.20;99.90;-2.40;97949.00;;;;4854402;28;92507;-65
2022/03/31 04:21:41;;;;;;;16.95;8.25;;;-2.10;99.90;-2.30;97960.00;;;;4875871;28;93649;-65
2022/03/31 04:24:08;;;;;;;15.10;7.63;;;-2.00;99.90;-2.10;97959.00;;;;4850426;29;93115;-65
2022/03/31 04:26:34;;;;;;;19.13;7.80;;;-1.80;99.90;-1.90;97954.00;;;;4875197;28;92523;-65
2022/03/31 04:29:01;;;;;;;17.35;7.28;;;-1.70;99.90;-1.80;97952.00;;;;4870625;28;91260;-65
2022/03/31 04:31:29;;;;;;;14.55;6.30;;;-1.50;99.90;-1.70;97952.00;;;;4876004;28;93658;-65
2022/03/31 04:33:55;;;;;;;12.35;6.82;;;-1.50;99.90;-1.50;97963.00;;;;4880536;28;93431;-65
2022/03/31 04:36:22;;;;;;;14.48;6.57;;;-1.30;99.90;-1.30;97951.00;;;;4882065;28;93393;-65
2022/03/31 04:38:48;;;;;;;12.93;6.38;;;-1.10;99.90;-1.20;97960.00;;;;4869806;28;92173;-65
2022/03/31 04:41:14;;;;;;;13.32;6.15;;;-1.00;99.90;-1.00;97955.00;;;;4872912;28;93837;-65
2022/03/31 04:43:41;;;;;;;9.60;6.28;;;-0.90;99.90;-1.00;97958.00;;;;4870490;28;92824;-65
2022/03/31 04:46:07;;;;;;;12.77;5.93;;;-0.80;99.90;-0.90;97963.00;;;;4872095;28;91992;-67
2022/03/31 04:48:34;;;;;;;12.77;6.05;;;-0.70;99.90;-0.90;97958.00;;;;4871489;28;92114;-66
2022/03/31 04:51:00;;;;;;;15.30;6.18;;;-0.60;99.90;-0.80;97964.00;;;;4870628;28;93061;-65
2022/03/31 04:53:27;;;;;;;12.73;6.13;;;-0.60;99.90;-0.70;97965.00;;;;4871072;28;92316;-65
2022/03/31 04:55:53;;;;;;;13.57;7.07;;;-0.50;99.90;-0.60;97964.00;;;;4871134;28;92616;-65
2022/03/31 04:58:19;;;;;;;12.27;6.20;;;-0.40;99.90;-0.50;97955.00;;;;4840092;28;92161;-65
2022/03/31 05:00:45;;;;;;;14.98;6.38;;;-0.30;99.90;-0.50;97957.00;;;;4871899;28;93646;-66
2022/03/31 05:03:11;;;;;;;15.48;5.75;;;-0.20;99.90;-0.40;97953.00;;;;4870595;28;95021;-65
2022/03/31 05:05:37;;;;;;;14.30;6.78;;;-0.10;99.90;-0.20;97963.00;;;;4866875;28;92043;-65
2022/03/31 05:08:04;;;;;;;11.50;5.07;;;0.00;99.90;-0.20;97977.00;;;;4874102;28;92518;-65
2022/03/31 05:10:30;;;;;;;13.75;6.10;;;0.00;99.90;-0.10;97981.00;;;;4874106;28;92527;-66
2022/03/31 05:12:56;;;;;;;12.07;5.72;;;0.20;99.90;0.00;97977.00;;;;4875142;28;92869;-65
2022/03/31 05:15:22;;;;;;;15.00;5.75;;;0.30;99.90;0.10;97982.00;;;;4872912;28;92078;-65
2022/03/31 05:17:48;;;;;;;16.02;6.15;;;0.30;99.90;0.10;97983.00;;;;4868271;28;91297;-65
2022/03/31 05:20:14;;;;;;;11.65;5.50;;;0.40;99.90;0.20;97986.00;;;;4860468;28;94434;-65
2022/03/31 05:22:41;;;;;;;14.23;5.95;;;0.40;99.90;0.30;97980.00;;;;4871717;28;92459;-65
2022/03/31 05:25:10;;;;;;;16.05;5.38;;;0.50;99.90;0.40;97983.00;;;;4873197;28;92924;-65
2022/03/31 05:27:46;;;;;;;18.23;5.93;;;0.60;99.90;0.50;97983.00;;;;4856259;28;92520;-66
2022/03/31 05:30:19;;;;;;;12.88;5.60;;;0.80;99.90;0.60;97986.00;;;;4874469;28;92654;-65
2022/03/31 05:32:48;;;;;;;9.88;5.13;;;0.90;99.90;0.60;97982.00;;;;4873224;28;93520;-66
2022/03/31 05:35:15;;;;;;;12.25;4.78;;;1.00;99.90;0.70;97988.00;;;;4881891;28;92246;-65
2022/03/31 05:37:42;;;;;;;14.27;5.05;;;1.00;99.90;0.80;97983.00;;;;4871737;28;92237;-65
2022/03/31 05:40:10;;;;;;;8.95;5.15;;;1.10;99.90;0.90;97992.00;;;;4878355;28;92352;-65
2022/03/31 05:42:38;;;;;;;10.45;5.60;;;1.20;99.90;0.90;97989.00;;;;4873035;28;92199;-65
2022/03/31 05:45:06;;;;;;;13.30;4.93;;;1.20;99.90;1.00;97991.00;;;;4874293;28;92343;-66
2022/03/31 05:47:33;;;;;;;10.90;5.25;;;1.30;99.90;1.10;97989.00;;;;4871003;28;94102;-62
2022/03/31 05:49:59;;;;;;;13.95;5.38;;;1.40;99.90;1.20;98000.00;;;;4867928;28;93557;-67
2022/03/31 05:52:25;;;;;;;15.15;5.70;;;1.30;99.90;1.30;97997.00;;;;4867013;28;93807;-66
2022/03/31 05:54:52;;;;;;;9.07;5.80;;;1.50;99.90;1.40;98004.00;;;;4870083;28;93146;-66
2022/03/31 05:57:18;;;;;;;13.25;6.55;;;1.60;99.90;1.40;98006.00;;;;4872153;28;92160;-67
2022/03/31 05:59:44;;;;;;;11.93;5.75;;;1.60;99.90;1.60;98022.00;;;;4870653;28;93491;-67
2022/03/31 06:02:11;;;;;;;12.05;5.65;;;1.70;99.90;1.60;98015.00;;;;4870598;28;93545;-66
2022/03/31 06:04:38;;;;;;;12.23;5.72;;;1.80;99.90;1.60;98015.00;;;;4873605;28;91997;-67
2022/03/31 06:07:06;;;;;;;11.73;5.78;;;1.80;99.90;1.70;98022.00;;;;4870332;28;91294;-67
2022/03/31 06:09:33;;;;;;;9.18;5.90;;;1.90;99.90;1.80;98016.00;;;;4879086;28;92456;-67
2022/03/31 06:11:59;;;;;;;11.15;6.28;;;2.10;99.90;2.00;98029.00;;;;4876930;28;93363;-67
2022/03/31 06:14:26;;;;;;;14.90;6.40;;;2.30;99.90;2.20;98025.00;;;;4876694;28;93347;-67
2022/03/31 06:16:52;;;;;;;12.98;6.38;;;2.50;99.90;2.40;98032.00;;;;4876452;28;92081;-67
2022/03/31 06:19:18;;;;;;;12.02;6.22;;;2.60;99.90;2.60;98030.00;;;;4872842;28;92815;-67
2022/03/31 06:21:45;;;;;;;9.68;5.30;;;2.80;99.90;2.60;98045.00;;;;4876580;28;92600;-66
2022/03/31 06:24:11;;;;;;;10.90;6.45;;;2.70;99.90;2.40;98040.00;;;;4874279;28;92097;-66
2022/03/31 06:26:38;;;;;;;12.55;6.30;;;2.50;99.90;2.30;98037.00;;;;4871756;28;92796;-66
2022/03/31 06:29:07;;;;;;;10.30;6.78;;;2.30;99.90;2.40;98033.00;;;;4877694;28;92773;-67
2022/03/31 06:31:33;;;;;;;10.90;6.63;;;2.60;99.90;2.50;98033.00;;;;4855169;28;93459;-66
2022/03/31 06:34:00;;;;;;;12.27;6.78;;;2.60;99.90;2.40;98027.00;;;;4883867;28;92178;-68
2022/03/31 06:36:26;;;;;;;10.70;6.57;;;2.60;99.90;2.40;98032.00;;;;4883438;28;92288;-68
2022/03/31 06:38:52;;;;;;;20.58;7.75;;;2.60;99.90;2.50;98041.00;;;;4871247;28;93494;-67
2022/03/31 06:41:18;;;;;;;11.30;6.93;;;2.70;99.90;2.60;98042.00;;;;4875528;28;93299;-68
2022/03/31 06:43:48;;;;;;;11.95;7.20;;;2.70;99.90;2.80;98049.00;;;;4855943;28;92336;-66
2022/03/31 06:46:16;;;;;;;15.45;7.13;;;3.00;99.90;2.90;98049.00;;;;4872935;28;92156;-67
2022/03/31 06:48:48;;;;;;;12.57;7.00;;;3.10;99.90;3.00;98049.00;;;;4875787;28;92711;-66
2022/03/31 06:51:19;;;;;;;11.90;7.38;;;3.20;99.90;2.90;98043.00;;;;4864409;28;92759;-67
2022/03/31 06:53:45;;;;;;;14.93;6.43;;;3.20;99.90;2.80;98032.00;;;;4858221;28;92454;-67
2022/03/31 06:56:14;;;;;;;16.90;7.05;;;3.10;99.90;2.90;98040.00;;;;4873811;28;91495;-67
2022/03/31 06:58:40;;;;;;;12.90;6.57;;;3.10;99.90;2.80;98036.00;;;;4871570;28;93931;-67
2022/03/31 07:01:08;;;;;;;14.88;6.85;;;3.10;99.90;2.90;98038.00;;;;4874893;28;92297;-67
2022/03/31 07:03:36;;;;;;;12.88;6.53;;;3.10;99.90;2.90;98038.00;;;;4861094;28;93061;-67
2022/03/31 07:06:03;;;;;;;15.50;6.85;;;3.20;99.90;2.80;98035.00;;;;4842325;28;92561;-67
2022/03/31 07:08:30;;;;;;;13.50;7.03;;;3.00;99.90;2.90;98035.00;;;;4851482;29;92735;-67
2022/03/31 07:10:56;;;;;;;13.70;6.25;;;3.20;99.90;3.00;98041.00;;;;4859791;28;93296;-68
2022/03/31 07:13:23;;;;;;;20.08;6.43;;;3.20;99.90;3.10;98030.00;;;;4874253;28;93318;-67
2022/03/31 07:15:49;;;;;;;19.52;6.75;;;3.30;99.90;3.20;98041.00;;;;4858172;28;92175;-67
2022/03/31 07:18:15;;;;;;;15.95;6.43;;;3.40;99.90;3.20;98034.00;;;;4867171;28;93399;-67
2022/03/31 07:20:41;;;;;;;14.23;6.53;;;3.30;99.90;3.00;98036.00;;;;4882716;28;92160;-66
2022/03/31 07:23:08;;;;;;;20.05;6.53;;;3.20;99.90;2.90;98040.00;;;;4855939;29;92441;-67
2022/03/31 07:25:35;;;;;;;16.27;5.95;;;3.10;99.90;2.70;98039.00;;;;4878765;28;92542;-67
2022/03/31 07:28:01;;;;;;;13.02;5.60;;;2.90;99.90;2.60;98043.00;;;;4872646;28;93710;-67
2022/03/31 07:30:27;;;;;;;12.52;5.28;;;2.80;99.90;2.80;98045.00;;;;4876960;28;93402;-67
2022/03/31 07:32:58;;;;;;;15.25;5.60;;;3.00;99.90;2.90;98044.00;;;;4877078;28;92699;-68
2022/03/31 07:35:30;;;;;;;17.55;5.28;;;3.00;99.90;2.90;98038.00;;;;4875267;28;92059;-68
2022/03/31 07:37:58;;;;;;;14.05;4.90;;;3.10;99.90;2.90;98043.00;;;;4873026;28;92777;-67
2022/03/31 07:40:27;;;;;;;13.45;4.85;;;3.10;99.90;2.90;98042.00;;;;4880587;28;93135;-67
2022/03/31 07:42:53;;;;;;;15.65;4.95;;;3.00;99.90;3.00;98049.00;;;;4870569;28;92095;-67
2022/03/31 07:45:21;;;;;;;15.48;4.55;;;3.20;99.90;3.10;98058.00;;;;4880728;28;91926;-67
2022/03/31 07:47:48;;;;;;;13.07;4.50;;;3.20;99.90;3.00;98052.00;;;;4873607;28;91978;-67
2022/03/31 07:50:18;;;;;;;11.80;4.15;;;3.10;99.90;2.60;98062.00;;;;4856909;28;93486;-66
2022/03/31 07:52:44;;;;;;;11.43;4.35;;;2.90;99.90;2.50;98046.00;;;;4848622;29;93052;-65
2022/03/31 07:55:14;;;;;;;12.20;4.45;;;2.70;99.90;2.40;98046.00;;;;4847488;29;92423;-66
2022/03/31 07:57:40;;;;;;;13.27;4.32;;;2.70;99.90;2.40;98029.00;;;;4857750;29;94041;-68
2022/03/31 08:00:10;;;;;;;15.10;4.28;;;2.70;99.90;2.40;98038.00;;;;4851885;29;92370;-67
2022/03/31 08:02:44;;;;;;;15.07;4.20;;;2.70;99.90;2.60;98047.00;;;;4836629;29;91988;-67
2022/03/31 08:05:14;;;;;;;8.05;3.88;;;2.80;99.90;2.50;98049.00;;;;4816830;29;92436;-67
2022/03/31 08:07:40;;;;;;;10.55;3.95;;;2.70;99.90;2.70;98054.00;;;;4814775;29;92574;-68
2022/03/31 08:10:08;;;;;;;10.32;3.65;;;2.90;99.90;2.80;98048.00;;;;4850863;29;92404;-67
2022/03/31 08:12:35;;;;;;;10.48;3.97;;;3.10;99.90;3.00;98039.00;;;;4859056;29;92106;-67
2022/03/31 08:15:04;;;;;;;10.23;3.00;;;3.20;99.90;3.00;98038.00;;;;4854035;29;92372;-67
2022/03/31 08:17:31;;;;;;;7.60;3.75;;;3.20;99.90;3.00;98047.00;;;;4859197;29;93826;-68
2022/03/31 08:19:57;;;;;;;6.32;3.10;;;3.30;99.90;3.10;98046.00;;;;4844456;29;93559;-67
2022/03/31 08:22:26;;;;;;;8.65;3.75;;;3.30;99.90;3.20;98043.00;;;;4859411;29;92174;-67
2022/03/31 08:24:53;;;;;;;11.35;4.07;;;3.40;99.90;3.20;98038.00;;;;4856019;29;92059;-67
2022/03/31 08:27:20;;;;;;;12.60;3.50;;;3.40;99.90;3.40;98043.00;;;;4838568;29;92741;-67
2022/03/31 08:29:46;;;;;;;9.63;3.33;;;3.60;99.90;3.40;98026.00;;;;4852636;29;93481;-67
2022/03/31 08:32:15;;;;;;;7.80;3.42;;;3.50;99.90;3.30;98024.00;;;;4858173;29;91998;-67
2022/03/31 08:34:42;;;;;;;6.38;3.30;;;3.40;99.90;3.20;98032.00;;;;4862562;29;91210;-67
2022/03/31 08:37:08;;;;;;;9.15;3.85;;;3.40;99.90;3.30;98037.00;;;;4859887;29;92585;-67
2022/03/31 08:39:34;;;;;;;7.72;3.40;;;3.40;99.90;3.40;98006.00;;;;4853874;29;92097;-67
2022/03/31 08:42:01;;;;;;;6.45;3.35;;;3.60;99.90;3.50;98024.00;;;;4857223;29;93349;-67
2022/03/31 08:44:28;;;;;;;7.82;3.75;;;3.70;99.90;3.60;98014.00;;;;4826775;29;92231;-67
2022/03/31 08:46:55;;;;;;;9.73;3.97;;;3.70;99.90;3.60;98015.00;;;;4855345;29;93846;-67
2022/03/31 08:49:29;;;;;;;8.82;4.45;;;3.80;99.90;3.60;98015.00;;;;5040549;28;81575;-68
2022/03/31 08:51:56;;;;;;;7.22;3.88;;;3.70;99.90;3.60;98012.00;;;;5005922;28;81685;-67
2022/03/31 08:54:22;;;;;;;9.43;4.75;;;3.80;99.90;3.70;98021.00;;;;5019176;28;82953;-68
2022/03/31 08:56:48;;;;;;;8.90;4.80;;;3.90;99.90;3.70;98014.00;;;;5017579;28;82419;-67
2022/03/31 08:59:15;;;;;;;11.52;5.10;;;3.80;99.90;3.70;98022.00;;;;5019709;28;81649;-67
2022/03/31 09:01:42;;;;;;;9.45;4.78;;;3.80;99.90;3.60;98027.00;;;;5019615;28;81690;-67
2022/03/31 09:04:25;;;;;;;13.48;5.40;;;3.80;99.90;3.50;98021.00;;;;5015857;28;82142;-67
2022/03/31 09:07:07;;;;;;;9.07;5.40;;;3.70;99.90;3.10;98016.00;;;;5018814;28;82365;-67
2022/03/31 09:09:53;;;;;;;9.80;4.78;;;3.30;99.90;3.20;98012.00;;;;5016948;28;81787;-66
2022/03/31 09:12:22;;;;;;;13.18;5.68;;;3.30;99.90;3.30;98016.00;;;;5018838;28;81550;-66
2022/03/31 09:14:48;;;;;;;13.18;5.80;;;3.40;99.90;3.30;98005.00;;;;5017791;28;81826;-67
2022/03/31 09:17:17;;;;;;;10.77;6.00;;;3.40;99.90;3.50;97991.00;;;;5019215;28;82087;-67
2022/03/31 09:19:43;;;;;;;11.25;5.97;;;3.70;99.90;3.70;97999.00;;;;5008534;28;82756;-67
2022/03/31 09:22:10;;;;;;;8.68;5.63;;;3.80;99.90;3.60;98006.00;;;;5021876;28;81959;-67
2022/03/31 09:24:39;;;;;;;11.20;6.43;;;3.70;99.90;3.50;98001.00;;;;5018545;28;82247;-67
2022/03/31 09:27:06;;;;;;;13.05;6.50;;;3.70;99.90;3.20;97997.00;;;;5018551;28;82155;-66
2022/03/31 09:29:34;;;;;;;11.68;6.80;;;3.40;99.90;3.00;98000.00;;;;5019887;28;81989;-67
2022/03/31 09:32:26;;;;;;;10.13;6.45;;;3.20;99.90;2.80;98000.00;;;;5020352;28;81729;-68
2022/03/31 09:34:52;;;;;;;12.70;6.07;;;3.00;99.90;2.60;97997.00;;;;5019212;28;81997;-67
2022/03/31 09:37:31;;;;;;;11.13;6.60;;;2.80;99.90;2.50;98010.00;;;;5019857;28;82201;-65
2022/03/31 09:40:01;;;;;;;10.77;6.70;;;2.70;99.90;2.50;98013.00;;;;5018404;28;84590;-72
2022/03/31 09:42:27;;;;;;;8.93;6.20;;;2.70;99.90;2.60;98004.00;;;;5017120;28;82067;-72
2022/03/31 09:44:59;;;;;;;10.00;6.70;;;2.80;99.90;2.80;97997.00;;;;5016045;28;81690;-72
2022/03/31 09:47:29;;;;;;;7.97;6.47;;;2.90;99.90;2.80;97984.00;;;;5018604;28;83429;-67
2022/03/31 09:49:57;;;;;;;;;;;3.00;99.90;2.70;97992.00;;;;5019569;28;81901;-66
2022/03/31 09:52:24;;;;;;;10.52;6.45;;;2.80;99.90;2.80;97986.00;;;;5020105;28;81886;-67
2022/03/31 09:54:54;;;;;;;8.90;5.68;;;2.90;99.90;2.80;97977.00;;;;5018673;28;81660;-72
2022/03/31 09:57:21;;;;;;;9.45;6.30;;;3.00;99.90;2.80;97983.00;;;;5020125;28;85018;-72
2022/03/31 09:59:54;;;;;;;7.93;6.13;;;3.00;99.90;2.80;97992.00;;;;5011968;28;81916;-72
2022/03/31 10:02:22;;;;;;;8.43;6.40;;;3.00;99.90;2.70;97986.00;;;;5006488;28;82005;-68
2022/03/31 10:04:50;;;;;;;11.35;6.40;;;2.90;99.90;2.80;97984.00;;;;5010721;28;81689;-66
2022/03/31 10:07:19;;;;;;;9.48;6.13;;;3.00;99.90;2.70;97989.00;;;;4996278;28;82480;-65
2022/03/31 10:09:48;;;;;;;11.23;5.95;;;3.00;99.90;2.70;97986.00;;;;4990758;28;82274;-67
2022/03/31 10:12:43;;;;;;;9.35;6.18;;;2.90;99.90;2.30;97999.00;;;;5005753;28;82041;-64
2022/03/31 10:15:22;;;;;;;12.45;6.13;;;2.60;99.90;2.20;97989.00;;;;5003967;28;82012;-67
2022/03/31 10:17:50;;;;;;;10.43;6.22;;;2.40;99.90;2.10;97987.00;;;;4972836;28;82411;-68
2022/03/31 10:20:17;;;;;;;9.60;5.75;;;2.40;99.90;2.20;97984.00;;;;5005953;28;81973;-68
2022/03/31 10:25:53;;;;;;;9.73;5.32;;;2.50;99.90;2.10;97974.00;;;;5008147;28;83379;-73
2022/03/31 10:28:24;;;;;;;10.30;5.28;;;2.30;99.90;2.10;97965.00;;;;5003872;28;82731;-64
2022/03/31 10:31:01;;;;;;;9.68;4.82;;;2.40;99.90;2.20;97964.00;;;;4971917;28;83025;-72
2022/03/31 10:33:52;;;;;;;10.18;5.20;;;2.40;99.90;2.30;97967.00;;;;4990050;28;81688;-66
2022/03/31 10:36:22;;;;;;;7.57;4.82;;;2.60;99.90;2.40;97957.00;;;;4990532;28;82365;-65
2022/03/31 10:38:59;;;;;;;7.95;4.80;;;2.60;99.90;2.40;97955.00;;;;5005437;28;82615;-67
2022/03/31 10:41:34;;;;;;;7.00;4.15;;;2.60;99.90;2.50;97965.00;;;;5018564;28;83607;-68
2022/03/31 10:44:14;;;;;;;8.73;4.82;;;2.70;99.90;2.40;97967.00;;;;5004471;28;81775;-68
2022/03/31 10:46:59;;;;;;;9.55;4.68;;;2.60;99.90;2.60;97968.00;;;;5008196;28;82712;-68
2022/03/31 10:49:34;;;;;;;7.22;4.18;;;2.80;99.90;2.40;97962.00;;;;5003476;28;83258;-68
2022/03/31 10:52:19;;;;;;;9.65;4.45;;;2.70;99.90;2.50;97958.00;;;;5003636;28;82844;-66
2022/03/31 10:54:51;;;;;;;10.07;4.70;;;2.80;99.90;2.30;97962.00;;;;5003280;28;82059;-65
2022/03/31 10:57:20;;;;;;;8.57;4.18;;;2.50;99.90;2.00;97961.00;;;;4990580;28;82168;-67
2022/03/31 10:59:54;;;;;;;6.57;4.35;;;2.30;99.90;1.90;97969.00;;;;5003606;28;82136;-68
2022/03/31 11:02:25;;;;;;;8.05;4.72;;;2.10;99.90;1.80;97960.00;;;;4990563;28;83323;-68
2022/03/31 11:05:01;;;;;;;6.95;5.55;;;2.10;99.90;1.70;97971.00;;;;5001773;28;81715;-67
2022/03/31 11:07:31;;;;;;;8.32;5.07;;;2.00;99.90;1.90;97955.00;;;;5003154;28;82292;-68